createdAt,value
2023-02-16T00:00:52.650Z,1019.87
2023-02-16T00:01:52.664Z,1019.91
2023-02-16T00:02:52.651Z,1019.84
2023-02-16T00:03:52.671Z,1019.90
2023-02-16T00:04:52.604Z,1019.86
2023-02-16T00:05:52.598Z,1019.86
2023-02-16T00:06:52.611Z,1019.77
2023-02-16T00:07:52.588Z,1019.79
2023-02-16T00:08:52.634Z,1019.88
2023-02-16T00:09:52.557Z,1019.84
2023-02-16T00:10:52.541Z,1019.91
2023-02-16T00:11:52.532Z,1019.95
2023-02-16T00:12:52.522Z,1019.86
2023-02-16T00:14:01.225Z,1019.82
2023-02-16T00:15:00.043Z,1019.84
2023-02-16T00:16:00.158Z,1019.88
2023-02-16T00:16:52.509Z,1019.83
2023-02-16T00:17:52.498Z,1019.79
2023-02-16T00:18:52.504Z,1019.88
2023-02-16T00:19:52.453Z,1019.81
2023-02-16T00:20:52.446Z,1019.82
2023-02-16T00:21:52.452Z,1019.78
2023-02-16T00:22:52.427Z,1019.78
2023-02-16T00:23:52.426Z,1019.77
2023-02-16T00:24:52.425Z,1019.80
2023-02-16T00:25:52.392Z,1019.78
2023-02-16T00:26:52.396Z,1019.77
2023-02-16T00:27:52.364Z,1019.82
2023-02-16T00:28:52.368Z,1019.81
2023-02-16T00:29:52.490Z,1019.81
2023-02-16T00:30:52.451Z,1019.82
2023-02-16T00:31:52.452Z,1019.75
2023-02-16T00:32:52.343Z,1019.82
2023-02-16T00:33:52.348Z,1019.79
2023-02-16T00:34:52.307Z,1019.84
2023-02-16T00:35:52.310Z,1019.81
2023-02-16T00:36:52.283Z,1019.78
2023-02-16T00:37:52.276Z,1019.79
2023-02-16T00:38:52.269Z,1019.72
2023-02-16T00:39:52.267Z,1019.74
2023-02-16T00:40:52.238Z,1019.73
2023-02-16T00:41:52.243Z,1019.74
2023-02-16T00:42:52.224Z,1019.73
2023-02-16T00:43:52.207Z,1019.76
2023-02-16T00:44:52.215Z,1019.76
2023-02-16T00:45:52.247Z,1019.76
2023-02-16T00:46:52.196Z,1019.74
2023-02-16T00:47:52.166Z,1019.72
2023-02-16T00:48:52.152Z,1019.71
2023-02-16T00:49:52.244Z,1019.72
2023-02-16T00:50:52.147Z,1019.76
2023-02-16T00:51:52.164Z,1019.73
2023-02-16T00:52:52.154Z,1019.75
2023-02-16T00:53:52.112Z,1019.69
2023-02-16T00:54:52.095Z,1019.72
2023-02-16T00:55:52.079Z,1019.68
2023-02-16T00:56:52.100Z,1019.69
2023-02-16T00:57:52.070Z,1019.73
2023-02-16T00:58:52.057Z,1019.71
2023-02-16T00:59:52.056Z,1019.70
2023-02-16T01:00:52.043Z,1019.68
2023-02-16T01:01:52.117Z,1019.72
2023-02-16T01:02:52.048Z,1019.64
2023-02-16T01:03:51.995Z,1019.76
2023-02-16T01:04:52.069Z,1019.64
2023-02-16T01:05:52.009Z,1019.70
2023-02-16T01:06:51.969Z,1019.70
2023-02-16T01:07:51.974Z,1019.66
2023-02-16T01:08:51.979Z,1019.74
2023-02-16T01:09:51.939Z,1019.71
2023-02-16T01:10:51.928Z,1019.70
2023-02-16T01:11:51.925Z,1019.69
2023-02-16T01:12:51.913Z,1019.67
2023-02-16T01:13:51.898Z,1019.67
2023-02-16T01:14:51.911Z,1019.66
2023-02-16T01:15:51.933Z,1019.64
2023-02-16T01:16:51.857Z,1019.64
2023-02-16T01:17:51.864Z,1019.59
2023-02-16T01:18:51.844Z,1019.64
2023-02-16T01:19:51.871Z,1019.64
2023-02-16T01:20:51.857Z,1019.63
2023-02-16T01:21:51.834Z,1019.62
2023-02-16T01:22:51.804Z,1019.65
2023-02-16T01:23:51.794Z,1019.58
2023-02-16T01:24:51.777Z,1019.59
2023-02-16T01:25:51.783Z,1019.54
2023-02-16T01:26:51.769Z,1019.53
2023-02-16T01:27:51.752Z,1019.52
2023-02-16T01:28:51.742Z,1019.58
2023-02-16T01:29:51.767Z,1019.55
2023-02-16T01:30:51.914Z,1019.62
2023-02-16T01:31:51.809Z,1019.52
2023-02-16T01:32:51.853Z,1019.54
2023-02-16T01:33:51.680Z,1019.48
2023-02-16T01:34:51.682Z,1019.59
2023-02-16T01:35:51.675Z,1019.50
2023-02-16T01:36:51.660Z,1019.48
2023-02-16T01:37:51.688Z,1019.52
2023-02-16T01:38:51.656Z,1019.53
2023-02-16T01:39:51.620Z,1019.50
2023-02-16T01:40:51.624Z,1019.47
2023-02-16T01:41:51.625Z,1019.53
2023-02-16T01:42:51.591Z,1019.51
2023-02-16T01:43:51.584Z,1019.53
2023-02-16T01:44:51.595Z,1019.49
2023-02-16T01:45:51.560Z,1019.50
2023-02-16T01:46:51.668Z,1019.44
2023-02-16T01:47:51.534Z,1019.45
2023-02-16T01:48:51.530Z,1019.45
2023-02-16T01:49:51.525Z,1019.42
2023-02-16T01:50:51.514Z,1019.46
2023-02-16T01:51:51.509Z,1019.45
2023-02-16T01:52:51.498Z,1019.48
2023-02-16T01:53:51.517Z,1019.41
2023-02-16T01:54:51.464Z,1019.43
2023-02-16T01:55:51.460Z,1019.40
2023-02-16T01:56:51.499Z,1019.43
2023-02-16T01:57:51.456Z,1019.41
2023-02-16T01:58:51.446Z,1019.41
2023-02-16T01:59:51.433Z,1019.43
2023-02-16T02:00:51.411Z,1019.40
2023-02-16T02:01:51.428Z,1019.40
2023-02-16T02:02:51.441Z,1019.41
2023-02-16T02:03:51.382Z,1019.42
2023-02-16T02:04:51.368Z,1019.39
2023-02-16T02:05:51.360Z,1019.41
2023-02-16T02:06:51.341Z,1019.46
2023-02-16T02:07:51.359Z,1019.39
2023-02-16T02:08:51.321Z,1019.42
2023-02-16T02:09:51.349Z,1019.38
2023-02-16T02:10:51.304Z,1019.41
2023-02-16T02:11:51.286Z,1019.42
2023-02-16T02:12:51.325Z,1019.34
2023-02-16T02:13:51.289Z,1019.36
2023-02-16T02:14:51.266Z,1019.43
2023-02-16T02:15:51.342Z,1019.44
2023-02-16T02:16:51.241Z,1019.43
2023-02-16T02:17:51.240Z,1019.41
2023-02-16T02:18:51.237Z,1019.37
2023-02-16T02:19:51.224Z,1019.34
2023-02-16T02:20:51.192Z,1019.35
2023-02-16T02:21:51.197Z,1019.33
2023-02-16T02:22:51.436Z,1019.34
2023-02-16T02:23:51.166Z,1019.31
2023-02-16T02:24:51.162Z,1019.30
2023-02-16T02:25:51.172Z,1019.33
2023-02-16T02:26:51.147Z,1019.27
2023-02-16T02:27:51.125Z,1019.22
2023-02-16T02:28:51.105Z,1019.21
2023-02-16T02:29:51.118Z,1019.23
2023-02-16T02:30:51.142Z,1019.20
2023-02-16T02:31:51.243Z,1019.18
2023-02-16T02:32:51.064Z,1019.23
2023-02-16T02:33:51.059Z,1019.17
2023-02-16T02:34:51.075Z,1019.20
2023-02-16T02:35:51.043Z,1019.17
2023-02-16T02:36:51.028Z,1019.17
2023-02-16T02:37:51.029Z,1019.09
2023-02-16T02:38:51.008Z,1019.08
2023-02-16T02:39:51.038Z,1019.06
2023-02-16T02:40:50.998Z,1019.00
2023-02-16T02:41:50.990Z,1019.09
2023-02-16T02:42:50.972Z,1019.02
2023-02-16T02:43:50.975Z,1019.02
2023-02-16T02:44:50.950Z,1019.07
2023-02-16T02:45:50.957Z,1019.04
2023-02-16T02:46:51.010Z,1019.02
2023-02-16T02:47:50.914Z,1018.99
2023-02-16T02:48:50.907Z,1019.02
2023-02-16T02:49:50.908Z,1019.08
2023-02-16T02:50:50.884Z,1019.06
2023-02-16T02:51:50.880Z,1019.04
2023-02-16T02:52:50.865Z,1019.12
2023-02-16T02:53:50.851Z,1019.03
2023-02-16T02:54:50.850Z,1019.10
2023-02-16T02:55:50.838Z,1019.08
2023-02-16T02:56:59.845Z,1018.97
2023-02-16T02:57:58.343Z,1019.00
2023-02-16T02:58:58.338Z,1018.97
2023-02-16T02:59:58.342Z,1018.94
2023-02-16T03:00:50.792Z,1019.00
2023-02-16T03:01:50.795Z,1018.99
2023-02-16T03:02:50.781Z,1019.02
2023-02-16T03:03:50.754Z,1018.96
2023-02-16T03:04:50.736Z,1018.97
2023-02-16T03:05:50.737Z,1019.03
2023-02-16T03:06:50.710Z,1018.95
2023-02-16T03:07:50.729Z,1019.01
2023-02-16T03:08:50.688Z,1019.00
2023-02-16T03:09:50.680Z,1019.00
2023-02-16T03:10:50.676Z,1018.99
2023-02-16T03:11:50.671Z,1018.99
2023-02-16T03:12:50.790Z,1018.96
2023-02-16T03:13:50.656Z,1019.08
2023-02-16T03:14:50.630Z,1018.99
2023-02-16T03:15:50.625Z,1018.99
2023-02-16T03:16:50.615Z,1019.04
2023-02-16T03:17:50.611Z,1018.99
2023-02-16T03:18:50.591Z,1018.93
2023-02-16T03:19:50.581Z,1018.98
2023-02-16T03:20:50.570Z,1018.96
2023-02-16T03:21:50.554Z,1018.93
2023-02-16T03:22:50.562Z,1018.95
2023-02-16T03:23:50.541Z,1018.97
2023-02-16T03:24:50.537Z,1018.92
2023-02-16T03:25:50.519Z,1019.00
2023-02-16T03:26:50.532Z,1019.02
2023-02-16T03:27:50.508Z,1018.97
2023-02-16T03:28:50.509Z,1018.90
2023-02-16T03:29:50.471Z,1018.92
2023-02-16T03:30:50.521Z,1018.93
2023-02-16T03:31:50.586Z,1018.97
2023-02-16T03:32:50.447Z,1018.92
2023-02-16T03:33:50.430Z,1019.02
2023-02-16T03:34:50.445Z,1018.94
2023-02-16T03:35:50.408Z,1019.01
2023-02-16T03:36:50.403Z,1018.96
2023-02-16T03:37:50.403Z,1018.96
2023-02-16T03:38:50.382Z,1018.94
2023-02-16T03:39:50.375Z,1019.01
2023-02-16T03:40:50.378Z,1019.01
2023-02-16T03:41:50.357Z,1018.94
2023-02-16T03:42:50.332Z,1018.91
2023-02-16T03:43:50.322Z,1018.88
2023-02-16T03:44:50.359Z,1018.90
2023-02-16T03:45:50.363Z,1018.95
2023-02-16T03:46:50.327Z,1018.97
2023-02-16T03:47:50.288Z,1018.92
2023-02-16T03:48:50.269Z,1018.97
2023-02-16T03:49:50.259Z,1019.02
2023-02-16T03:50:50.254Z,1019.00
2023-02-16T03:51:50.241Z,1019.09
2023-02-16T03:52:50.262Z,1019.05
2023-02-16T03:53:50.227Z,1018.95
2023-02-16T03:54:50.215Z,1019.02
2023-02-16T03:55:50.199Z,1018.96
2023-02-16T03:56:50.191Z,1018.98
2023-02-16T03:57:50.191Z,1018.98
2023-02-16T03:58:50.183Z,1018.96
2023-02-16T03:59:50.158Z,1019.02
2023-02-16T04:00:50.184Z,1019.01
2023-02-16T04:01:50.169Z,1019.02
2023-02-16T04:02:50.135Z,1018.95
2023-02-16T04:03:50.210Z,1018.98
2023-02-16T04:04:50.124Z,1018.97
2023-02-16T04:05:50.108Z,1018.94
2023-02-16T04:06:50.094Z,1018.99
2023-02-16T04:07:50.079Z,1018.97
2023-02-16T04:08:50.085Z,1018.92
2023-02-16T04:09:50.072Z,1018.90
2023-02-16T04:10:50.083Z,1018.96
2023-02-16T04:11:50.042Z,1019.01
2023-02-16T04:12:50.032Z,1019.00
2023-02-16T04:13:50.026Z,1018.94
2023-02-16T04:14:50.022Z,1018.99
2023-02-16T04:15:50.003Z,1018.97
2023-02-16T04:16:50.090Z,1018.94
2023-02-16T04:17:49.987Z,1018.91
2023-02-16T04:18:49.977Z,1018.89
2023-02-16T04:19:49.970Z,1018.96
2023-02-16T04:20:49.954Z,1018.96
2023-02-16T04:21:49.961Z,1018.94
2023-02-16T04:22:49.935Z,1018.94
2023-02-16T04:23:49.920Z,1018.98
2023-02-16T04:24:49.918Z,1018.96
2023-02-16T04:25:49.900Z,1018.97
2023-02-16T04:26:49.894Z,1018.96
2023-02-16T04:27:49.891Z,1018.95
2023-02-16T04:28:49.883Z,1018.91
2023-02-16T04:29:49.868Z,1018.86
2023-02-16T04:30:49.942Z,1018.90
2023-02-16T04:31:50.059Z,1018.82
2023-02-16T04:32:49.844Z,1018.82
2023-02-16T04:33:49.813Z,1018.84
2023-02-16T04:34:58.396Z,1018.81
2023-02-16T04:35:57.330Z,1018.85
2023-02-16T04:36:57.315Z,1018.86
2023-02-16T04:37:57.296Z,1018.87
2023-02-16T04:38:49.757Z,1018.81
2023-02-16T04:39:49.761Z,1018.82
2023-02-16T04:40:49.764Z,1018.80
2023-02-16T04:41:49.753Z,1018.83
2023-02-16T04:42:49.741Z,1018.82
2023-02-16T04:43:49.705Z,1018.82
2023-02-16T04:44:49.697Z,1018.78
2023-02-16T04:45:49.781Z,1018.80
2023-02-16T04:46:49.668Z,1018.83
2023-02-16T04:47:49.678Z,1018.84
2023-02-16T04:48:49.682Z,1018.89
2023-02-16T04:49:50.383Z,1018.82
2023-02-16T04:50:49.635Z,1018.86
2023-02-16T04:51:49.620Z,1018.84
2023-02-16T04:52:49.604Z,1018.88
2023-02-16T04:53:49.615Z,1018.89
2023-02-16T04:54:49.592Z,1018.96
2023-02-16T04:55:49.594Z,1018.94
2023-02-16T04:56:49.584Z,1018.89
2023-02-16T04:57:49.553Z,1018.90
2023-02-16T04:58:49.541Z,1018.91
2023-02-16T04:59:49.552Z,1018.90
2023-02-16T05:00:49.529Z,1018.90
2023-02-16T05:01:49.586Z,1018.94
2023-02-16T05:02:49.504Z,1018.85
2023-02-16T05:03:49.497Z,1018.90
2023-02-16T05:04:49.616Z,1018.91
2023-02-16T05:05:49.492Z,1018.90
2023-02-16T05:06:49.462Z,1018.91
2023-02-16T05:07:49.470Z,1018.91
2023-02-16T05:08:49.441Z,1018.91
2023-02-16T05:09:49.432Z,1018.87
2023-02-16T05:10:49.427Z,1018.84
2023-02-16T05:11:49.429Z,1018.85
2023-02-16T05:12:49.411Z,1018.85
2023-02-16T05:13:49.387Z,1018.91
2023-02-16T05:14:49.386Z,1018.92
2023-02-16T05:15:49.417Z,1018.95
2023-02-16T05:16:49.361Z,1018.92
2023-02-16T05:17:49.366Z,1018.98
2023-02-16T05:18:49.338Z,1018.97
2023-02-16T05:19:49.333Z,1018.93
2023-02-16T05:20:49.332Z,1018.94
2023-02-16T05:21:49.307Z,1018.98
2023-02-16T05:22:49.312Z,1018.94
2023-02-16T05:23:49.299Z,1019.00
2023-02-16T05:24:49.276Z,1019.03
2023-02-16T05:25:49.280Z,1019.01
2023-02-16T05:26:49.259Z,1018.94
2023-02-16T05:27:49.264Z,1018.96
2023-02-16T05:28:49.252Z,1018.98
2023-02-16T05:29:49.243Z,1019.00
2023-02-16T05:30:49.312Z,1019.04
2023-02-16T05:31:49.412Z,1018.99
2023-02-16T05:32:49.198Z,1018.98
2023-02-16T05:33:49.205Z,1019.02
2023-02-16T05:34:49.176Z,1019.01
2023-02-16T05:35:49.180Z,1019.13
2023-02-16T05:36:49.175Z,1019.17
2023-02-16T05:37:49.152Z,1018.98
2023-02-16T05:38:49.164Z,1019.10
2023-02-16T05:39:49.138Z,1019.10
2023-02-16T05:40:49.133Z,1019.12
2023-02-16T05:41:49.119Z,1019.10
2023-02-16T05:42:49.099Z,1019.11
2023-02-16T05:43:49.090Z,1019.12
2023-02-16T05:44:49.097Z,1019.15
2023-02-16T05:45:49.067Z,1019.13
2023-02-16T05:46:49.062Z,1019.10
2023-02-16T05:47:49.054Z,1019.08
2023-02-16T05:48:49.031Z,1019.05
2023-02-16T05:49:49.053Z,1019.06
2023-02-16T05:50:49.039Z,1019.01
2023-02-16T05:51:49.019Z,1019.02
2023-02-16T05:52:49.006Z,1019.06
2023-02-16T05:53:49.006Z,1019.09
2023-02-16T05:54:48.973Z,1019.02
2023-02-16T05:55:48.972Z,1019.10
2023-02-16T05:56:48.968Z,1019.06
2023-02-16T05:57:48.944Z,1019.12
2023-02-16T05:58:48.934Z,1019.04
2023-02-16T05:59:48.937Z,1019.04
2023-02-16T06:00:48.938Z,1019.04
2023-02-16T06:01:51.944Z,1019.05
2023-02-16T06:02:48.932Z,1019.05
2023-02-16T06:03:48.933Z,1019.10
2023-02-16T06:04:48.873Z,1019.08
2023-02-16T06:05:48.887Z,1019.03
2023-02-16T06:06:48.870Z,1019.11
2023-02-16T06:07:48.851Z,1019.14
2023-02-16T06:08:48.856Z,1019.18
2023-02-16T06:09:48.814Z,1019.16
2023-02-16T06:10:48.841Z,1019.06
2023-02-16T06:11:48.801Z,1019.10
2023-02-16T06:12:48.803Z,1019.09
2023-02-16T06:13:48.773Z,1019.13
2023-02-16T06:14:48.764Z,1019.11
2023-02-16T06:15:48.758Z,1019.11
2023-02-16T06:16:48.765Z,1019.13
2023-02-16T06:17:48.760Z,1019.13
2023-02-16T06:18:48.732Z,1019.10
2023-02-16T06:19:48.715Z,1019.18
2023-02-16T06:20:48.701Z,1019.13
2023-02-16T06:21:48.688Z,1019.16
2023-02-16T06:22:48.692Z,1019.10
2023-02-16T06:23:48.688Z,1019.16
2023-02-16T06:24:48.691Z,1019.15
2023-02-16T06:25:48.655Z,1019.16
2023-02-16T06:26:48.678Z,1019.16
2023-02-16T06:27:48.644Z,1019.19
2023-02-16T06:28:48.651Z,1019.21
2023-02-16T06:29:48.608Z,1019.20
2023-02-16T06:30:48.625Z,1019.17
2023-02-16T06:31:48.711Z,1019.12
2023-02-16T06:32:48.583Z,1019.12
2023-02-16T06:33:48.582Z,1019.18
2023-02-16T06:34:48.574Z,1019.18
2023-02-16T06:35:48.558Z,1019.12
2023-02-16T06:36:48.540Z,1019.06
2023-02-16T06:37:48.528Z,1019.06
2023-02-16T06:38:48.529Z,1019.10
2023-02-16T06:39:48.507Z,1019.01
2023-02-16T06:40:48.528Z,1018.96
2023-02-16T06:41:48.502Z,1019.08
2023-02-16T06:42:48.492Z,1019.10
2023-02-16T06:43:48.458Z,1019.10
2023-02-16T06:44:48.467Z,1019.14
2023-02-16T06:45:55.986Z,1019.12
2023-02-16T06:46:58.116Z,1019.10
2023-02-16T06:47:55.977Z,1019.12
2023-02-16T06:48:55.958Z,1019.12
2023-02-16T06:49:48.397Z,1019.12
2023-02-16T06:50:48.394Z,1019.14
2023-02-16T06:51:48.419Z,1019.17
2023-02-16T06:52:48.368Z,1019.08
2023-02-16T06:53:48.357Z,1019.16
2023-02-16T06:54:48.359Z,1019.10
2023-02-16T06:55:48.337Z,1019.08
2023-02-16T06:56:48.360Z,1019.09
2023-02-16T06:57:48.323Z,1019.09
2023-02-16T06:58:48.317Z,1019.12
2023-02-16T06:59:48.310Z,1019.12
2023-02-16T07:00:48.415Z,1019.09
2023-02-16T07:01:48.281Z,1019.14
2023-02-16T07:02:48.278Z,1019.14
2023-02-16T07:03:48.268Z,1019.23
2023-02-16T07:04:48.252Z,1019.14
2023-02-16T07:05:48.241Z,1019.19
2023-02-16T07:06:48.234Z,1019.19
2023-02-16T07:07:48.222Z,1019.17
2023-02-16T07:08:48.201Z,1019.13
2023-02-16T07:09:48.196Z,1019.16
2023-02-16T07:10:50.424Z,1019.12
2023-02-16T07:11:48.186Z,1019.12
2023-02-16T07:12:48.200Z,1019.17
2023-02-16T07:13:48.164Z,1019.19
2023-02-16T07:14:48.143Z,1019.17
2023-02-16T07:15:48.132Z,1019.13
2023-02-16T07:16:48.121Z,1019.15
2023-02-16T07:17:48.111Z,1019.12
2023-02-16T07:18:48.114Z,1019.08
2023-02-16T07:19:48.084Z,1019.01
2023-02-16T07:20:48.092Z,1019.02
2023-02-16T07:21:48.065Z,1019.08
2023-02-16T07:22:48.057Z,1019.06
2023-02-16T07:23:48.100Z,1019.05
2023-02-16T07:24:48.037Z,1019.03
2023-02-16T07:25:48.031Z,1019.13
2023-02-16T07:26:55.554Z,1019.02
2023-02-16T07:27:48.004Z,1018.97
2023-02-16T07:28:48.075Z,1019.05
2023-02-16T07:29:48.014Z,1019.01
2023-02-16T07:30:48.164Z,1019.04
2023-02-16T07:31:48.251Z,1019.05
2023-02-16T07:32:47.947Z,1019.00
2023-02-16T07:33:47.946Z,1018.96
2023-02-16T07:34:47.935Z,1018.95
2023-02-16T07:35:47.914Z,1019.01
2023-02-16T07:36:47.912Z,1019.04
2023-02-16T07:37:47.904Z,1019.01
2023-02-16T07:38:47.896Z,1019.08
2023-02-16T07:39:47.903Z,1019.09
2023-02-16T07:40:47.866Z,1019.13
2023-02-16T07:41:47.867Z,1019.14
2023-02-16T07:42:47.992Z,1019.14
2023-02-16T07:43:47.835Z,1019.11
2023-02-16T07:44:47.853Z,1019.07
2023-02-16T07:45:47.846Z,1019.06
2023-02-16T07:46:47.815Z,1019.04
2023-02-16T07:47:47.786Z,1019.08
2023-02-16T07:48:47.775Z,1019.09
2023-02-16T07:49:47.764Z,1019.13
2023-02-16T07:50:47.761Z,1019.11
2023-02-16T07:51:47.756Z,1019.06
2023-02-16T07:52:47.752Z,1019.06
2023-02-16T07:53:47.729Z,1019.07
2023-02-16T07:54:48.085Z,1019.15
2023-02-16T07:55:47.739Z,1019.17
2023-02-16T07:56:47.703Z,1019.20
2023-02-16T07:57:47.778Z,1019.18
2023-02-16T07:58:47.685Z,1019.27
2023-02-16T07:59:47.659Z,1019.19
2023-02-16T08:00:47.673Z,1019.26
2023-02-16T08:01:47.645Z,1019.35
2023-02-16T08:02:47.852Z,1019.35
2023-02-16T08:03:47.623Z,1019.43
2023-02-16T08:04:47.634Z,1019.42
2023-02-16T08:05:47.608Z,1019.36
2023-02-16T08:06:47.586Z,1019.39
2023-02-16T08:07:47.814Z,1019.41
2023-02-16T08:08:47.587Z,1019.37
2023-02-16T08:09:47.556Z,1019.40
2023-02-16T08:10:47.552Z,1019.40
2023-02-16T08:11:47.536Z,1019.39
2023-02-16T08:12:47.541Z,1019.37
2023-02-16T08:13:47.527Z,1019.37
2023-02-16T08:14:47.524Z,1019.38
2023-02-16T08:15:47.500Z,1019.35
2023-02-16T08:16:50.305Z,1019.35
2023-02-16T08:17:47.489Z,1019.45
2023-02-16T08:18:47.495Z,1019.41
2023-02-16T08:19:47.469Z,1019.42
2023-02-16T08:21:02.661Z,1019.36
2023-02-16T08:21:48.444Z,1019.31
2023-02-16T08:22:47.425Z,1019.31
2023-02-16T08:23:47.576Z,1019.31
2023-02-16T08:24:47.418Z,1019.23
2023-02-16T08:25:47.406Z,1019.24
2023-02-16T08:26:47.391Z,1019.28
2023-02-16T08:27:47.383Z,1019.31
2023-02-16T08:28:47.372Z,1019.28
2023-02-16T08:29:47.361Z,1019.25
2023-02-16T08:30:47.342Z,1019.23
2023-02-16T08:31:47.462Z,1019.21
2023-02-16T08:32:47.350Z,1019.16
2023-02-16T08:33:47.321Z,1019.19
2023-02-16T08:34:47.317Z,1019.15
2023-02-16T08:35:47.301Z,1019.18
2023-02-16T08:36:47.284Z,1019.18
2023-02-16T08:37:47.287Z,1019.16
2023-02-16T08:38:47.258Z,1019.23
2023-02-16T08:39:47.250Z,1019.19
2023-02-16T08:40:47.248Z,1019.19
2023-02-16T08:41:47.242Z,1019.18
2023-02-16T08:42:47.222Z,1019.20
2023-02-16T08:43:47.227Z,1019.18
2023-02-16T08:44:47.258Z,1019.12
2023-02-16T08:45:47.222Z,1019.19
2023-02-16T08:46:47.186Z,1019.16
2023-02-16T08:47:47.163Z,1019.13
2023-02-16T08:48:47.287Z,1019.15
2023-02-16T08:49:47.154Z,1019.08
2023-02-16T08:50:47.167Z,1019.03
2023-02-16T08:51:47.131Z,1019.11
2023-02-16T08:52:47.126Z,1019.02
2023-02-16T08:53:47.128Z,1019.03
2023-02-16T08:54:47.086Z,1019.06
2023-02-16T08:55:47.100Z,1019.12
2023-02-16T08:56:47.073Z,1019.12
2023-02-16T08:57:47.070Z,1019.09
2023-02-16T08:58:47.068Z,1019.14
2023-02-16T08:59:47.040Z,1019.11
2023-02-16T09:00:47.042Z,1019.18
2023-02-16T09:01:47.048Z,1019.16
2023-02-16T09:02:47.131Z,1019.17
2023-02-16T09:03:47.009Z,1019.14
2023-02-16T09:04:48.780Z,1019.10
2023-02-16T09:05:46.980Z,1019.08
2023-02-16T09:06:46.959Z,1019.09
2023-02-16T09:07:46.966Z,1019.15
2023-02-16T09:08:46.943Z,1019.11
2023-02-16T09:09:46.938Z,1019.16
2023-02-16T09:10:46.932Z,1019.16
2023-02-16T09:11:46.908Z,1019.05
2023-02-16T09:12:46.894Z,1019.13
2023-02-16T09:13:46.938Z,1019.18
2023-02-16T09:14:46.889Z,1019.09
2023-02-16T09:15:46.869Z,1019.14
2023-02-16T09:16:46.933Z,1019.12
2023-02-16T09:17:46.846Z,1019.14
2023-02-16T09:18:46.834Z,1019.12
2023-02-16T09:19:46.854Z,1019.17
2023-02-16T09:20:47.228Z,1019.14
2023-02-16T09:21:46.860Z,1019.07
2023-02-16T09:22:47.071Z,1019.12
2023-02-16T09:23:46.789Z,1019.11
2023-02-16T09:24:46.771Z,1019.11
2023-02-16T09:25:46.762Z,1019.12
2023-02-16T09:26:46.752Z,1019.09
2023-02-16T09:27:46.751Z,1019.06
2023-02-16T09:28:46.759Z,1019.10
2023-02-16T09:29:46.715Z,1019.14
2023-02-16T09:30:46.747Z,1019.09
2023-02-16T09:31:46.714Z,1019.15
2023-02-16T09:32:46.695Z,1019.01
2023-02-16T09:33:46.679Z,1019.01
2023-02-16T09:34:46.681Z,1019.08
2023-02-16T09:35:46.655Z,1019.03
2023-02-16T09:36:46.657Z,1019.00
2023-02-16T09:37:46.648Z,1019.07
2023-02-16T09:38:46.629Z,1019.01
2023-02-16T09:39:46.628Z,1019.07
2023-02-16T09:40:46.598Z,1019.07
2023-02-16T09:41:46.589Z,1019.08
2023-02-16T09:42:46.588Z,1019.04
2023-02-16T09:43:46.572Z,1019.04
2023-02-16T09:44:46.584Z,1018.96
2023-02-16T09:45:46.611Z,1019.02
2023-02-16T09:46:46.543Z,1018.93
2023-02-16T09:47:46.522Z,1018.97
2023-02-16T09:48:46.510Z,1018.98
2023-02-16T09:49:46.503Z,1018.96
2023-02-16T09:50:53.421Z,1018.99
2023-02-16T09:51:47.490Z,1019.01
2023-02-16T09:52:46.504Z,1019.00
2023-02-16T09:53:46.465Z,1019.03
2023-02-16T09:54:46.469Z,1019.05
2023-02-16T09:55:46.452Z,1019.08
2023-02-16T09:56:46.432Z,1019.12
2023-02-16T09:57:46.423Z,1019.11
2023-02-16T09:58:46.411Z,1019.06
2023-02-16T09:59:46.404Z,1019.11
2023-02-16T10:00:46.405Z,1019.14
2023-02-16T10:01:46.374Z,1019.08
2023-02-16T10:02:46.459Z,1019.11
2023-02-16T10:03:46.365Z,1019.14
2023-02-16T10:04:46.349Z,1019.15
2023-02-16T10:05:46.341Z,1019.10
2023-02-16T10:06:46.338Z,1019.09
2023-02-16T10:07:46.318Z,1019.09
2023-02-16T10:08:46.320Z,1019.13
2023-02-16T10:09:46.295Z,1019.12
2023-02-16T10:10:46.288Z,1019.09
2023-02-16T10:11:46.297Z,1019.08
2023-02-16T10:12:46.259Z,1019.10
2023-02-16T10:13:46.253Z,1019.17
2023-02-16T10:14:46.249Z,1019.12
2023-02-16T10:15:46.259Z,1019.09
2023-02-16T10:16:46.225Z,1019.18
2023-02-16T10:17:46.213Z,1019.14
2023-02-16T10:18:46.194Z,1019.19
2023-02-16T10:19:46.189Z,1019.09
2023-02-16T10:20:46.180Z,1019.06
2023-02-16T10:21:46.160Z,1019.04
2023-02-16T10:22:46.173Z,1019.05
2023-02-16T10:23:46.149Z,1019.05
2023-02-16T10:24:46.156Z,1019.10
2023-02-16T10:25:46.125Z,1019.06
2023-02-16T10:26:46.118Z,1019.13
2023-02-16T10:27:46.119Z,1019.04
2023-02-16T10:28:46.113Z,1019.02
2023-02-16T10:29:46.087Z,1019.06
2023-02-16T10:30:46.115Z,1018.92
2023-02-16T10:31:46.149Z,1019.00
2023-02-16T10:32:46.044Z,1018.94
2023-02-16T10:33:46.046Z,1019.01
2023-02-16T10:34:46.040Z,1019.01
2023-02-16T10:35:46.014Z,1019.03
2023-02-16T10:36:46.009Z,1018.98
2023-02-16T10:37:46.020Z,1018.96
2023-02-16T10:38:45.993Z,1018.89
2023-02-16T10:39:45.995Z,1018.88
2023-02-16T10:40:45.985Z,1018.94
2023-02-16T10:41:45.960Z,1018.92
2023-02-16T10:42:45.946Z,1018.88
2023-02-16T10:43:45.947Z,1018.91
2023-02-16T10:44:45.937Z,1018.91
2023-02-16T10:45:49.535Z,1018.88
2023-02-16T10:46:46.938Z,1018.89
2023-02-16T10:47:45.898Z,1018.91
2023-02-16T10:48:45.897Z,1018.92
2023-02-16T10:49:45.868Z,1018.86
2023-02-16T10:50:45.857Z,1018.93
2023-02-16T10:51:45.859Z,1018.85
2023-02-16T10:52:45.845Z,1018.87
2023-02-16T10:53:45.833Z,1018.85
2023-02-16T10:54:45.831Z,1018.91
2023-02-16T10:55:45.813Z,1018.85
2023-02-16T10:56:45.854Z,1018.82
2023-02-16T10:57:45.878Z,1018.85
2023-02-16T10:58:45.789Z,1018.88
2023-02-16T10:59:45.777Z,1018.84
2023-02-16T11:00:45.758Z,1018.85
2023-02-16T11:01:45.801Z,1018.87
2023-02-16T11:02:45.730Z,1018.78
2023-02-16T11:03:45.747Z,1018.75
2023-02-16T11:04:45.766Z,1018.76
2023-02-16T11:05:45.698Z,1018.71
2023-02-16T11:06:45.691Z,1018.76
2023-02-16T11:07:45.715Z,1018.72
2023-02-16T11:08:45.676Z,1018.70
2023-02-16T11:09:45.694Z,1018.68
2023-02-16T11:10:45.658Z,1018.74
2023-02-16T11:11:45.637Z,1018.67
2023-02-16T11:12:45.685Z,1018.68
2023-02-16T11:13:45.622Z,1018.68
2023-02-16T11:14:45.618Z,1018.65
2023-02-16T11:15:45.638Z,1018.67
2023-02-16T11:16:45.592Z,1018.65
2023-02-16T11:17:45.588Z,1018.64
2023-02-16T11:18:45.576Z,1018.64
2023-02-16T11:19:45.552Z,1018.61
2023-02-16T11:20:45.552Z,1018.67
2023-02-16T11:21:45.539Z,1018.60
2023-02-16T11:22:45.527Z,1018.61
2023-02-16T11:23:45.520Z,1018.64
2023-02-16T11:24:45.509Z,1018.57
2023-02-16T11:25:45.501Z,1018.55
2023-02-16T11:26:45.479Z,1018.52
2023-02-16T11:27:45.480Z,1018.52
2023-02-16T11:28:45.486Z,1018.47
2023-02-16T11:29:45.465Z,1018.43
2023-02-16T11:30:45.471Z,1018.52
2023-02-16T11:31:45.580Z,1018.51
2023-02-16T11:32:45.415Z,1018.43
2023-02-16T11:33:45.405Z,1018.40
2023-02-16T11:34:45.393Z,1018.36
2023-02-16T11:35:45.425Z,1018.46
2023-02-16T11:36:45.395Z,1018.46
2023-02-16T11:37:45.371Z,1018.42
2023-02-16T11:38:45.351Z,1018.37
2023-02-16T11:39:45.341Z,1018.43
2023-02-16T11:40:45.336Z,1018.43
2023-02-16T11:41:45.333Z,1018.49
2023-02-16T11:42:45.327Z,1018.52
2023-02-16T11:43:45.301Z,1018.54
2023-02-16T11:44:45.299Z,1018.51
2023-02-16T11:45:45.284Z,1018.46
2023-02-16T11:46:45.298Z,1018.47
2023-02-16T11:47:45.248Z,1018.46
2023-02-16T11:48:45.241Z,1018.42
2023-02-16T11:49:45.230Z,1018.45
2023-02-16T11:50:45.215Z,1018.45
2023-02-16T11:51:45.213Z,1018.43
2023-02-16T11:52:45.189Z,1018.42
2023-02-16T11:53:45.193Z,1018.56
2023-02-16T11:54:45.183Z,1018.49
2023-02-16T11:55:45.179Z,1018.52
2023-02-16T11:56:45.147Z,1018.53
2023-02-16T11:57:45.151Z,1018.43
2023-02-16T11:58:45.147Z,1018.47
2023-02-16T11:59:45.116Z,1018.41
2023-02-16T12:00:45.133Z,1018.45
2023-02-16T12:01:45.105Z,1018.46
2023-02-16T12:02:45.120Z,1018.49
2023-02-16T12:03:45.102Z,1018.43
2023-02-16T12:04:45.063Z,1018.45
2023-02-16T12:05:45.058Z,1018.41